Eleven Point River (Missouri), Ravenden Springs (07072000)

StateMissouriLatestHigh (2990 cfs)
RiverEleven Point RiverRatingObservedEstimated
Updated2020-02-25 15:15 (1 hour ago)Flood - The river is flooding. Obstacles can be treacherous or deadly. The river should be avoided at this stage for casual trips and definitely for the inexperienced. Trips should be attempted only with protective gear and equipment.Flood(none)3035
Discharge2990 cfs (median: 1160 cfs)High - The river is high and potentially dangerous, especially for the young and / or inexperienced. Normal stream obstacles are sometimes difficult to navigate. Extended distances can be attempted, but canoe travel may not be advisable.High(none)1402
Height6.27 feetGood - Conditions are ideal for a canoe or kayak. Boats typically will drag on fewer than one-quarter of riffles, if at all, and portages are unnecessary or rare. Normal float lengths can be attempted without a problem.Good(none)1027
TrendRising (rising over 24 hours)Low - River is low but can still be floated. Some riffles are okay but most come with significant dragging and might need a portage. Float lengths should be reduced to accommodate low flow, dragging, and portages.Low(none)777
USGSExternal icon USGS Site (External icon Google Maps)Poor - River is too low to float comfortably. Most or all riffles will drag or must be portaged and some obstacles (such as slick shelf rock) cause undue problems. Avoid the river at this stage for casual paddling trips.Poor(none)414

Trending Data

Plot Image

Trips for Eleven Point River (Missouri), Ravenden Springs (07072000)

DateStartEndDistanceConditionDischargeHeightFishingDetails

A total of 0 rows are displayed.

Condition Descriptions

Fishing Conditions

Fish Species

Notes

Classic Trip List

The classic River Trips application is still available for use. It is updated with the new system using a data retrofit. It is no longer maintained. The original River Trips application is no longer updated (as of 1 Dec 2016) but can be checked for errors or for the condition of the data before it was converted to the new system.

Gauge Data Table

ObservationHeightDischargeMaximum
Discharge
Minimum
Discharge
Mean
Discharge
P05P10P20P25P50
(Median)
P75P80P90P95
2020-02-25 15:15 6.27 2990 8390 (1985) 348 (1963) 1420 455 506 741 805 1160 1620 1860 2440 3010
2020-02-25 14:45 6.24 2970 8390 (1985) 348 (1963) 1420 455 506 741 805 1160 1620 1860 2440 3010
2020-02-25 13:45 6.19 2930 8390 (1985) 348 (1963) 1420 455 506 741 805 1160 1620 1860 2440 3010
2020-02-25 12:45 6.16 2910 8390 (1985) 348 (1963) 1420 455 506 741 805 1160 1620 1860 2440 3010
2020-02-25 11:45 6.14 2890 8390 (1985) 348 (1963) 1420 455 506 741 805 1160 1620 1860 2440 3010
2020-02-25 10:45 6.12 2880 8390 (1985) 348 (1963) 1420 455 506 741 805 1160 1620 1860 2440 3010
2020-02-25 09:45 6.12 2880 8390 (1985) 348 (1963) 1420 455 506 741 805 1160 1620 1860 2440 3010
2020-02-25 08:45 6.12 2880 8390 (1985) 348 (1963) 1420 455 506 741 805 1160 1620 1860 2440 3010
2020-02-25 07:45 6.11 2870 8390 (1985) 348 (1963) 1420 455 506 741 805 1160 1620 1860 2440 3010
2020-02-25 06:45 6.11 2870 8390 (1985) 348 (1963) 1420 455 506 741 805 1160 1620 1860 2440 3010
2020-02-25 05:45 6.12 2880 8390 (1985) 348 (1963) 1420 455 506 741 805 1160 1620 1860 2440 3010
2020-02-25 04:45 6.12 2880 8390 (1985) 348 (1963) 1420 455 506 741 805 1160 1620 1860 2440 3010
2020-02-25 03:45 6.11 2870 8390 (1985) 348 (1963) 1420 455 506 741 805 1160 1620 1860 2440 3010
2020-02-25 02:45 6.09 2850 8390 (1985) 348 (1963) 1420 455 506 741 805 1160 1620 1860 2440 3010
2020-02-25 01:45 6.08 2850 8390 (1985) 348 (1963) 1420 455 506 741 805 1160 1620 1860 2440 3010
2020-02-25 00:45 6.08 2850 8390 (1985) 348 (1963) 1420 455 506 741 805 1160 1620 1860 2440 3010
2020-02-24 23:45 6.09 2850 8620 (1985) 353 (1963) 1460 432 520 713 788 1110 1660 1900 2560 3570
2020-02-24 22:45 6.11 2870 8620 (1985) 353 (1963) 1460 432 520 713 788 1110 1660 1900 2560 3570
2020-02-24 21:45 6.16 2910 8620 (1985) 353 (1963) 1460 432 520 713 788 1110 1660 1900 2560 3570
2020-02-24 20:45 6.21 2950 8620 (1985) 353 (1963) 1460 432 520 713 788 1110 1660 1900 2560 3570
2020-02-24 19:45 6.30 3020 8620 (1985) 353 (1963) 1460 432 520 713 788 1110 1660 1900 2560 3570
2020-02-24 18:45 6.41 3100 8620 (1985) 353 (1963) 1460 432 520 713 788 1110 1660 1900 2560 3570
2020-02-24 17:45 6.46 3140 8620 (1985) 353 (1963) 1460 432 520 713 788 1110 1660 1900 2560 3570
2020-02-24 16:45 6.26 2990 8620 (1985) 353 (1963) 1460 432 520 713 788 1110 1660 1900 2560 3570
2020-02-24 15:45 5.92 2720 8620 (1985) 353 (1963) 1460 432 520 713 788 1110 1660 1900 2560 3570
2020-02-24 14:45 5.76 2600 8620 (1985) 353 (1963) 1460 432 520 713 788 1110 1660 1900 2560 3570
2020-02-24 13:45 5.75 2590 8620 (1985) 353 (1963) 1460 432 520 713 788 1110 1660 1900 2560 3570
2020-02-24 12:45 5.72 2570 8620 (1985) 353 (1963) 1460 432 520 713 788 1110 1660 1900 2560 3570
2020-02-24 11:45 5.66 2520 8620 (1985) 353 (1963) 1460 432 520 713 788 1110 1660 1900 2560 3570
2020-02-24 10:45 5.61 2490 8620 (1985) 353 (1963) 1460 432 520 713 788 1110 1660 1900 2560 3570
2020-02-24 09:45 5.55 2440 8620 (1985) 353 (1963) 1460 432 520 713 788 1110 1660 1900 2560 3570
2020-02-24 08:45 5.50 2400 8620 (1985) 353 (1963) 1460 432 520 713 788 1110 1660 1900 2560 3570
2020-02-24 07:45 5.42 2340 8620 (1985) 353 (1963) 1460 432 520 713 788 1110 1660 1900 2560 3570
2020-02-24 06:45 5.37 2310 8620 (1985) 353 (1963) 1460 432 520 713 788 1110 1660 1900 2560 3570
2020-02-24 05:45 5.31 2260 8620 (1985) 353 (1963) 1460 432 520 713 788 1110 1660 1900 2560 3570
2020-02-24 04:45 5.25 2220 8620 (1985) 353 (1963) 1460 432 520 713 788 1110 1660 1900 2560 3570
2020-02-24 03:45 5.18 2160 8620 (1985) 353 (1963) 1460 432 520 713 788 1110 1660 1900 2560 3570
2020-02-24 02:45 5.16 2150 8620 (1985) 353 (1963) 1460 432 520 713 788 1110 1660 1900 2560 3570
2020-02-24 01:45 5.12 2120 8620 (1985) 353 (1963) 1460 432 520 713 788 1110 1660 1900 2560 3570
2020-02-24 00:45 5.12 2120 8620 (1985) 353 (1963) 1460 432 520 713 788 1110 1660 1900 2560 3570
2020-02-23 23:45 5.12 2120 5140 (1979) 344 (1963) 1480 425 477 674 786 1140 1600 1770 3040 4900
2020-02-23 22:45 5.12 2120 5140 (1979) 344 (1963) 1480 425 477 674 786 1140 1600 1770 3040 4900
2020-02-23 21:45 5.11 2110 5140 (1979) 344 (1963) 1480 425 477 674 786 1140 1600 1770 3040 4900
2020-02-23 20:45 5.09 2100 5140 (1979) 344 (1963) 1480 425 477 674 786 1140 1600 1770 3040 4900
2020-02-23 19:45 5.10 2110 5140 (1979) 344 (1963) 1480 425 477 674 786 1140 1600 1770 3040 4900
2020-02-23 18:45 5.10 2110 5140 (1979) 344 (1963) 1480 425 477 674 786 1140 1600 1770 3040 4900
2020-02-23 17:45 5.09 2100 5140 (1979) 344 (1963) 1480 425 477 674 786 1140 1600 1770 3040 4900
2020-02-23 16:45 5.10 2110 5140 (1979) 344 (1963) 1480 425 477 674 786 1140 1600 1770 3040 4900
2020-02-23 15:45 5.09 2100 5140 (1979) 344 (1963) 1480 425 477 674 786 1140 1600 1770 3040 4900
2020-02-23 14:45 5.10 2110 5140 (1979) 344 (1963) 1480 425 477 674 786 1140 1600 1770 3040 4900
2020-02-23 13:45 5.10 2110 5140 (1979) 344 (1963) 1480 425 477 674 786 1140 1600 1770 3040 4900
2020-02-23 12:45 5.11 2110 5140 (1979) 344 (1963) 1480 425 477 674 786 1140 1600 1770 3040 4900
2020-02-23 11:45 5.11 2110 5140 (1979) 344 (1963) 1480 425 477 674 786 1140 1600 1770 3040 4900
2020-02-23 10:45 5.10 2110 5140 (1979) 344 (1963) 1480 425 477 674 786 1140 1600 1770 3040 4900
2020-02-23 09:45 5.11 2110 5140 (1979) 344 (1963) 1480 425 477 674 786 1140 1600 1770 3040 4900
2020-02-23 08:45 5.11 2110 5140 (1979) 344 (1963) 1480 425 477 674 786 1140 1600 1770 3040 4900
2020-02-23 07:45 5.11 2110 5140 (1979) 344 (1963) 1480 425 477 674 786 1140 1600 1770 3040 4900
2020-02-23 06:45 5.12 2120 5140 (1979) 344 (1963) 1480 425 477 674 786 1140 1600 1770 3040 4900
2020-02-23 05:45 5.11 2110 5140 (1979) 344 (1963) 1480 425 477 674 786 1140 1600 1770 3040 4900
2020-02-23 04:45 5.11 2110 5140 (1979) 344 (1963) 1480 425 477 674 786 1140 1600 1770 3040 4900
2020-02-23 03:45 5.12 2120 5140 (1979) 344 (1963) 1480 425 477 674 786 1140 1600 1770 3040 4900
2020-02-23 02:45 5.12 2120 5140 (1979) 344 (1963) 1480 425 477 674 786 1140 1600 1770 3040 4900
2020-02-23 01:45 5.13 2130 5140 (1979) 344 (1963) 1480 425 477 674 786 1140 1600 1770 3040 4900
2020-02-23 00:45 5.12 2120 5140 (1979) 344 (1963) 1480 425 477 674 786 1140 1600 1770 3040 4900
2020-02-22 23:45 5.13 2130 8450 (1974) 344 (1963) 1480 406 492 699 793 1130 1700 1910 2890 3530
2020-02-22 22:45 5.13 2130 8450 (1974) 344 (1963) 1480 406 492 699 793 1130 1700 1910 2890 3530
2020-02-22 21:45 5.13 2130 8450 (1974) 344 (1963) 1480 406 492 699 793 1130 1700 1910 2890 3530
2020-02-22 20:45 5.13 2130 8450 (1974) 344 (1963) 1480 406 492 699 793 1130 1700 1910 2890 3530
2020-02-22 19:45 5.13 2130 8450 (1974) 344 (1963) 1480 406 492 699 793 1130 1700 1910 2890 3530
2020-02-22 18:45 5.13 2130 8450 (1974) 344 (1963) 1480 406 492 699 793 1130 1700 1910 2890 3530
2020-02-22 17:45 5.14 2130 8450 (1974) 344 (1963) 1480 406 492 699 793 1130 1700 1910 2890 3530
2020-02-22 16:45 5.14 2130 8450 (1974) 344 (1963) 1480 406 492 699 793 1130 1700 1910 2890 3530
2020-02-22 15:45 5.12 2120 8450 (1974) 344 (1963) 1480 406 492 699 793 1130 1700 1910 2890 3530
2020-02-22 14:45 5.13 2130 8450 (1974) 344 (1963) 1480 406 492 699 793 1130 1700 1910 2890 3530
2020-02-22 13:45 5.12 2120 8450 (1974) 344 (1963) 1480 406 492 699 793 1130 1700 1910 2890 3530
2020-02-22 12:45 5.15 2140 8450 (1974) 344 (1963) 1480 406 492 699 793 1130 1700 1910 2890 3530
2020-02-22 11:45 5.14 2130 8450 (1974) 344 (1963) 1480 406 492 699 793 1130 1700 1910 2890 3530
2020-02-22 10:45 5.13 2130 8450 (1974) 344 (1963) 1480 406 492 699 793 1130 1700 1910 2890 3530
2020-02-22 09:45 5.16 2150 8450 (1974) 344 (1963) 1480 406 492 699 793 1130 1700 1910 2890 3530
2020-02-22 08:45 5.16 2150 8450 (1974) 344 (1963) 1480 406 492 699 793 1130 1700 1910 2890 3530
2020-02-22 07:45 5.18 2160 8450 (1974) 344 (1963) 1480 406 492 699 793 1130 1700 1910 2890 3530
2020-02-22 06:45 5.18 2160 8450 (1974) 344 (1963) 1480 406 492 699 793 1130 1700 1910 2890 3530
2020-02-22 05:45 5.19 2170 8450 (1974) 344 (1963) 1480 406 492 699 793 1130 1700 1910 2890 3530
2020-02-22 04:45 5.19 2170 8450 (1974) 344 (1963) 1480 406 492 699 793 1130 1700 1910 2890 3530
2020-02-22 03:45 5.20 2180 8450 (1974) 344 (1963) 1480 406 492 699 793 1130 1700 1910 2890 3530
2020-02-22 02:45 5.19 2170 8450 (1974) 344 (1963) 1480 406 492 699 793 1130 1700 1910 2890 3530
2020-02-22 01:45 5.21 2190 8450 (1974) 344 (1963) 1480 406 492 699 793 1130 1700 1910 2890 3530
2020-02-22 00:45 5.21 2190 8450 (1974) 344 (1963) 1480 406 492 699 793 1130 1700 1910 2890 3530
2020-02-21 23:45 5.21 2190 10000 (1951) 348 (1963) 1450 401 509 757 801 1160 1630 1820 2760 3620
2020-02-21 22:45 5.22 2190 10000 (1951) 348 (1963) 1450 401 509 757 801 1160 1630 1820 2760 3620
2020-02-21 21:45 5.22 2190 10000 (1951) 348 (1963) 1450 401 509 757 801 1160 1630 1820 2760 3620
2020-02-21 20:45 5.23 2200 10000 (1951) 348 (1963) 1450 401 509 757 801 1160 1630 1820 2760 3620
2020-02-21 19:45 5.22 2190 10000 (1951) 348 (1963) 1450 401 509 757 801 1160 1630 1820 2760 3620
2020-02-21 18:45 5.23 2200 10000 (1951) 348 (1963) 1450 401 509 757 801 1160 1630 1820 2760 3620
2020-02-21 17:45 5.25 2220 10000 (1951) 348 (1963) 1450 401 509 757 801 1160 1630 1820 2760 3620
2020-02-21 16:45 5.25 2220 10000 (1951) 348 (1963) 1450 401 509 757 801 1160 1630 1820 2760 3620
2020-02-21 15:45 5.26 2220 10000 (1951) 348 (1963) 1450 401 509 757 801 1160 1630 1820 2760 3620
2020-02-21 14:45 5.24 2210 10000 (1951) 348 (1963) 1450 401 509 757 801 1160 1630 1820 2760 3620
2020-02-21 13:45 5.27 2230 10000 (1951) 348 (1963) 1450 401 509 757 801 1160 1630 1820 2760 3620
2020-02-21 12:45 5.27 2230 10000 (1951) 348 (1963) 1450 401 509 757 801 1160 1630 1820 2760 3620
2020-02-21 11:45 5.27 2230 10000 (1951) 348 (1963) 1450 401 509 757 801 1160 1630 1820 2760 3620
2020-02-21 10:45 5.28 2240 10000 (1951) 348 (1963) 1450 401 509 757 801 1160 1630 1820 2760 3620
2020-02-21 09:45 5.27 2230 10000 (1951) 348 (1963) 1450 401 509 757 801 1160 1630 1820 2760 3620
2020-02-21 08:45 5.29 2250 10000 (1951) 348 (1963) 1450 401 509 757 801 1160 1630 1820 2760 3620
2020-02-21 07:45 5.30 2250 10000 (1951) 348 (1963) 1450 401 509 757 801 1160 1630 1820 2760 3620
2020-02-21 06:45 5.30 2250 10000 (1951) 348 (1963) 1450 401 509 757 801 1160 1630 1820 2760 3620
2020-02-21 05:45 5.31 2260 10000 (1951) 348 (1963) 1450 401 509 757 801 1160 1630 1820 2760 3620
2020-02-21 04:45 5.32 2270 10000 (1951) 348 (1963) 1450 401 509 757 801 1160 1630 1820 2760 3620
2020-02-21 03:45 5.32 2270 10000 (1951) 348 (1963) 1450 401 509 757 801 1160 1630 1820 2760 3620
2020-02-21 02:45 5.33 2280 10000 (1951) 348 (1963) 1450 401 509 757 801 1160 1630 1820 2760 3620
2020-02-21 01:45 5.33 2280 10000 (1951) 348 (1963) 1450 401 509 757 801 1160 1630 1820 2760 3620
2020-02-21 00:45 5.34 2280 10000 (1951) 348 (1963) 1450 401 509 757 801 1160 1630 1820 2760 3620
2020-02-20 23:45 5.36 2300 8210 (1938) 348 (1963) 1390 411 512 676 782 1130 1520 1710 2250 3120
2020-02-20 18:00 5.39 2320 8210 (1938) 348 (1963) 1390 411 512 676 782 1130 1520 1710 2250 3120
2020-02-20 17:45 5.40 2330 8210 (1938) 348 (1963) 1390 411 512 676 782 1130 1520 1710 2250 3120
2020-02-20 16:45 5.41 2340 8210 (1938) 348 (1963) 1390 411 512 676 782 1130 1520 1710 2250 3120
2020-02-20 15:45 5.42 2340 8210 (1938) 348 (1963) 1390 411 512 676 782 1130 1520 1710 2250 3120
2020-02-20 14:45 5.42 2340 8210 (1938) 348 (1963) 1390 411 512 676 782 1130 1520 1710 2250 3120
2020-02-20 13:45 5.43 2350 8210 (1938) 348 (1963) 1390 411 512 676 782 1130 1520 1710 2250 3120
2020-02-20 12:45 5.43 2350 8210 (1938) 348 (1963) 1390 411 512 676 782 1130 1520 1710 2250 3120
2020-02-20 11:45 5.44 2360 8210 (1938) 348 (1963) 1390 411 512 676 782 1130 1520 1710 2250 3120
2020-02-20 10:45 5.45 2370 8210 (1938) 348 (1963) 1390 411 512 676 782 1130 1520 1710 2250 3120
2020-02-20 09:45 5.45 2370 8210 (1938) 348 (1963) 1390 411 512 676 782 1130 1520 1710 2250 3120
2020-02-20 08:30 5.46 2370 8210 (1938) 348 (1963) 1390 411 512 676 782 1130 1520 1710 2250 3120
2020-02-20 07:45 5.47 2380 8210 (1938) 348 (1963) 1390 411 512 676 782 1130 1520 1710 2250 3120
2020-02-20 06:45 5.48 2390 8210 (1938) 348 (1963) 1390 411 512 676 782 1130 1520 1710 2250 3120
2020-02-20 05:45 5.49 2400 8210 (1938) 348 (1963) 1390 411 512 676 782 1130 1520 1710 2250 3120
2020-02-20 04:45 5.49 2400 8210 (1938) 348 (1963) 1390 411 512 676 782 1130 1520 1710 2250 3120
2020-02-20 03:45 5.50 2400 8210 (1938) 348 (1963) 1390 411 512 676 782 1130 1520 1710 2250 3120
2020-02-20 02:45 5.51 2410 8210 (1938) 348 (1963) 1390 411 512 676 782 1130 1520 1710 2250 3120
2020-02-20 01:45 5.52 2420 8210 (1938) 348 (1963) 1390 411 512 676 782 1130 1520 1710 2250 3120
2020-02-20 00:45 5.52 2420 8210 (1938) 348 (1963) 1390 411 512 676 782 1130 1520 1710 2250 3120
2020-02-19 23:45 5.54 2430 12800 (1938) 348 (1963) 1380 407 505 642 744 1120 1550 1700 2270 3270
2020-02-19 22:45 5.54 2430 12800 (1938) 348 (1963) 1380 407 505 642 744 1120 1550 1700 2270 3270
2020-02-19 21:45 5.56 2450 12800 (1938) 348 (1963) 1380 407 505 642 744 1120 1550 1700 2270 3270
2020-02-19 20:45 5.56 2450 12800 (1938) 348 (1963) 1380 407 505 642 744 1120 1550 1700 2270 3270
2020-02-19 19:45 5.57 2460 12800 (1938) 348 (1963) 1380 407 505 642 744 1120 1550 1700 2270 3270
2020-02-19 18:45 5.58 2460 12800 (1938) 348 (1963) 1380 407 505 642 744 1120 1550 1700 2270 3270
2020-02-19 17:45 5.60 2480 12800 (1938) 348 (1963) 1380 407 505 642 744 1120 1550 1700 2270 3270
2020-02-19 16:45 5.60 2480 12800 (1938) 348 (1963) 1380 407 505 642 744 1120 1550 1700 2270 3270
2020-02-19 15:45 5.61 2490 12800 (1938) 348 (1963) 1380 407 505 642 744 1120 1550 1700 2270 3270
2020-02-19 14:45 5.62 2490 12800 (1938) 348 (1963) 1380 407 505 642 744 1120 1550 1700 2270 3270
2020-02-19 13:45 5.62 2490 12800 (1938) 348 (1963) 1380 407 505 642 744 1120 1550 1700 2270 3270
2020-02-19 12:45 5.65 2520 12800 (1938) 348 (1963) 1380 407 505 642 744 1120 1550 1700 2270 3270
2020-02-19 11:45 5.65 2520 12800 (1938) 348 (1963) 1380 407 505 642 744 1120 1550 1700 2270 3270
2020-02-19 10:45 5.66 2520 12800 (1938) 348 (1963) 1380 407 505 642 744 1120 1550 1700 2270 3270
2020-02-19 09:45 5.66 2520 12800 (1938) 348 (1963) 1380 407 505 642 744 1120 1550 1700 2270 3270
2020-02-19 08:45 5.68 2540 12800 (1938) 348 (1963) 1380 407 505 642 744 1120 1550 1700 2270 3270
2020-02-19 07:45 5.69 2550 12800 (1938) 348 (1963) 1380 407 505 642 744 1120 1550 1700 2270 3270
2020-02-19 06:45 5.71 2560 12800 (1938) 348 (1963) 1380 407 505 642 744 1120 1550 1700 2270 3270
2020-02-19 05:45 5.72 2570 12800 (1938) 348 (1963) 1380 407 505 642 744 1120 1550 1700 2270 3270
2020-02-19 04:45 5.72 2570 12800 (1938) 348 (1963) 1380 407 505 642 744 1120 1550 1700 2270 3270
2020-02-19 03:45 5.73 2580 12800 (1938) 348 (1963) 1380 407 505 642 744 1120 1550 1700 2270 3270
2020-02-19 02:45 5.74 2580 12800 (1938) 348 (1963) 1380 407 505 642 744 1120 1550 1700 2270 3270
2020-02-19 01:45 5.74 2580 12800 (1938) 348 (1963) 1380 407 505 642 744 1120 1550 1700 2270 3270
2020-02-19 00:45 5.76 2600 12800 (1938) 348 (1963) 1380 407 505 642 744 1120 1550 1700 2270 3270
2020-02-18 23:45 5.76 2600 10300 (1938) 344 (1955) 1410 413 508 650 733 1120 1560 1780 2750 3550
2020-02-18 22:45 5.79 2620 10300 (1938) 344 (1955) 1410 413 508 650 733 1120 1560 1780 2750 3550
2020-02-18 21:45 5.80 2630 10300 (1938) 344 (1955) 1410 413 508 650 733 1120 1560 1780 2750 3550
2020-02-18 20:45 5.81 2640 10300 (1938) 344 (1955) 1410 413 508 650 733 1120 1560 1780 2750 3550
2020-02-18 19:45 5.83 2650 10300 (1938) 344 (1955) 1410 413 508 650 733 1120 1560 1780 2750 3550
2020-02-18 18:45 5.83 2650 10300 (1938) 344 (1955) 1410 413 508 650 733 1120 1560 1780 2750 3550
2020-02-18 17:45 5.84 2660 10300 (1938) 344 (1955) 1410 413 508 650 733 1120 1560 1780 2750 3550
2020-02-18 16:45 5.85 2670 10300 (1938) 344 (1955) 1410 413 508 650 733 1120 1560 1780 2750 3550
2020-02-18 15:45 5.86 2680 10300 (1938) 344 (1955) 1410 413 508 650 733 1120 1560 1780 2750 3550
2020-02-18 14:45 5.88 2690 10300 (1938) 344 (1955) 1410 413 508 650 733 1120 1560 1780 2750 3550
2020-02-18 13:45 5.88 2690 10300 (1938) 344 (1955) 1410 413 508 650 733 1120 1560 1780 2750 3550
2020-02-18 12:45 5.89 2700 10300 (1938) 344 (1955) 1410 413 508 650 733 1120 1560 1780 2750 3550
2020-02-18 11:45 5.90 2710 10300 (1938) 344 (1955) 1410 413 508 650 733 1120 1560 1780 2750 3550
2020-02-18 10:45 5.90 2710 10300 (1938) 344 (1955) 1410 413 508 650 733 1120 1560 1780 2750 3550
2020-02-18 09:45 5.90 2710 10300 (1938) 344 (1955) 1410 413 508 650 733 1120 1560 1780 2750 3550
2020-02-18 08:30 5.92 2720 10300 (1938) 344 (1955) 1410 413 508 650 733 1120 1560 1780 2750 3550
2020-02-18 07:45 5.91 2710 10300 (1938) 344 (1955) 1410 413 508 650 733 1120 1560 1780 2750 3550
2020-02-18 06:45 5.92 2720 10300 (1938) 344 (1955) 1410 413 508 650 733 1120 1560 1780 2750 3550
2020-02-18 05:45 5.91 2710 10300 (1938) 344 (1955) 1410 413 508 650 733 1120 1560 1780 2750 3550
2020-02-18 04:45 5.92 2720 10300 (1938) 344 (1955) 1410 413 508 650 733 1120 1560 1780 2750 3550
2020-02-18 03:45 5.92 2720 10300 (1938) 344 (1955) 1410 413 508 650 733 1120 1560 1780 2750 3550
2020-02-18 02:45 5.94 2740 10300 (1938) 344 (1955) 1410 413 508 650 733 1120 1560 1780 2750 3550
2020-02-18 01:45 5.94 2740 10300 (1938) 344 (1955) 1410 413 508 650 733 1120 1560 1780 2750 3550
2020-02-18 00:45 5.92 2720 10300 (1938) 344 (1955) 1410 413 508 650 733 1120 1560 1780 2750 3550

A total of 180 rows are displayed for years 1930 through 2016.